Grand Rapids, MN

2:20 PM CDT on July 28, 2016 (GMT -0500)
Southwest | | Change Station

Elev 1322 ft 47.23 °N, 93.54 °W | Updated 26 seconds ago

Mostly Cloudy
Mostly Cloudy
77.7 °F
Feels Like 79 °F
N
4.5
Wind Variable Wind from NW
Gusts 6.0 mph

Today
High -- | Low -- °F
--% Chance of Precip.
Yesterday
High -- | Low -- °F
Precip. -- in
Pressure 30.12 in
Visibility 10.0 miles
Clouds Few 4300 ft
Mostly Cloudy 6000 ft
Mostly Cloudy 7500 ft
Heat Index 79 °F
Dew Point 55 °F
Humidity 46%
Rainfall 0.00 in
Snow Depth Not available.
5:48 AM 8:51 PM
Waning Crescent, 29% visible
METAR KGPZ 281856Z AUTO 35003KT 10SM FEW043 BKN060 BKN075 23/13 A3011 RMK AO2 SLP197 T02280133
Pressure 30.12 in
Visibility 10.0 miles
Clouds Few 4300 ft
Mostly Cloudy 6000 ft
Mostly Cloudy 7500 ft
Heat Index 79 °F
Dew Point 55 °F
Humidity 46%
Rainfall 0.00 in
Snow Depth Not available.
5:48 AM 8:51 PM
Waning Crescent, 29% visible
METAR KGPZ 281856Z AUTO 35003KT 10SM FEW043 BKN060 BKN075 23/13 A3011 RMK AO2 SLP197 T02280133

10-Day Weather Forecast

Almanac

Astronomy

Jul. 28, 2016 Rise Set
Actual Time
Civil Twilight
Nautical Twilight
Astronomical Twilight
Moon
Length of Visible Light
Length of Day
Tomorrow will be .
, % of the Moon is Illuminated

Today's Extremes

State Highs State Lows

Community

WunderPhotos

Upload Photos

1,928,188 photos uploaded!

WunderBlog® & News

Nearby

Air Quality

  Air Quality AQ Index Pollutant
Not available.

Snow Depth

Station Depth Elevation

Earthquake Activity

City Distance Mag. Time & Date
Minimum magnitude displayed is 2.5.

Coastal Water Temperatures

Place Temperature

Stations

Nearby Weather Stations

Station Location Temp. Windchill Dew Point Humidity Wind Precip. Elev Updated Type
                   

Watches & Warnings

There are currently no watches in effect.